Time;durP1;ratioP1;P1;durP2;ratioP2;P2;SDS_P1;SDS_P2;PMS_P1;PMS_P2;Temp;Humidity;BMP_temperature;BMP_pressure;BME280_temperature;BME280_humidity;BME280_pressure;Samples;Min_cycle;Max_cycle;Signal;HPM_P1;HPM_P2
2022/08/27 00:01:26;;;;;;;7.10;2.13;;;;;;;;;;5011252;28;20017;-67
2022/08/27 00:03:55;;;;;;;8.13;2.35;;;;;;;;;;4993138;28;20475;-67
2022/08/27 00:06:22;;;;;;;7.05;1.83;;;;;;;;;;5011811;28;20036;-67
2022/08/27 00:08:49;;;;;;;9.82;2.10;;;;;;;;;;5010151;28;20233;-66
2022/08/27 00:11:16;;;;;;;6.90;2.00;;;;;;;;;;5011835;28;20063;-69
2022/08/27 00:13:42;;;;;;;7.18;2.28;;;;;;;;;;5009274;28;20026;-66
2022/08/27 00:16:10;;;;;;;6.72;1.80;;;;;;;;;;5018010;28;20031;-66
2022/08/27 00:18:37;;;;;;;6.63;1.70;;;;;;;;;;5015496;28;20067;-66
2022/08/27 00:21:03;;;;;;;5.47;1.90;;;;;;;;;;5009275;28;20034;-66
2022/08/27 00:23:30;;;;;;;5.88;1.77;;;;;;;;;;5018278;28;20371;-66
2022/08/27 00:25:56;;;;;;;7.30;1.98;;;;;;;;;;5011881;28;20152;-67
2022/08/27 00:28:23;;;;;;;6.50;1.60;;;;;;;;;;5015060;28;20522;-66
2022/08/27 00:30:49;;;;;;;6.53;1.92;;;;;;;;;;5015200;28;20024;-66
2022/08/27 00:33:15;;;;;;;8.10;1.80;;;;;;;;;;5019114;28;20045;-66
2022/08/27 00:35:41;;;;;;;8.55;2.10;;;;;;;;;;5017181;28;20024;-67
2022/08/27 00:38:08;;;;;;;9.75;2.30;;;;;;;;;;5020400;28;20166;-66
2022/08/27 00:40:34;;;;;;;8.45;2.45;;;;;;;;;;5018922;28;20029;-68
2022/08/27 00:43:03;;;;;;;9.27;2.60;;;;;;;;;;5016071;28;20644;-66
2022/08/27 00:45:32;;;;;;;6.05;1.73;;;;;;;;;;5016964;28;20458;-66
2022/08/27 00:47:58;;;;;;;9.43;1.92;;;;;;;;;;5011558;28;20028;-66
2022/08/27 00:50:33;;;;;;;7.15;2.10;;;;;;;;;;5016335;28;20122;-66
2022/08/27 00:53:01;;;;;;;7.88;1.90;;;;;;;;;;5013779;28;21842;-70
2022/08/27 00:55:30;;;;;;;8.80;2.10;;;;;;;;;;5002047;28;20424;-67
2022/08/27 00:58:02;;;;;;;6.15;1.75;;;;;;;;;;5013719;28;20049;-66
2022/08/27 01:00:28;;;;;;;8.95;2.15;;;;;;;;;;5016350;28;20069;-66
2022/08/27 01:02:54;;;;;;;7.38;2.10;;;;;;;;;;5019918;28;20037;-66
2022/08/27 01:05:24;;;;;;;6.75;1.90;;;;;;;;;;5026233;28;20033;-67
2022/08/27 01:07:53;;;;;;;8.15;1.92;;;;;;;;;;5019053;28;20149;-67
2022/08/27 01:10:20;;;;;;;10.27;2.05;;;;;;;;;;5020036;28;20044;-67
2022/08/27 01:12:47;;;;;;;8.85;1.90;;;;;;;;;;5019572;28;20075;-67
2022/08/27 01:15:14;;;;;;;7.25;2.08;;;;;;;;;;5020102;28;20273;-67
2022/08/27 01:17:41;;;;;;;10.43;2.20;;;;;;;;;;5017487;28;20416;-66
2022/08/27 01:20:11;;;;;;;10.52;2.00;;;;;;;;;;5021443;28;20029;-67
2022/08/27 01:22:50;;;;;;;6.63;1.70;;;;;;;;;;5021254;28;20171;-67
2022/08/27 01:25:18;;;;;;;7.20;1.70;;;;;;;;;;5019312;28;20124;-66
2022/08/27 01:27:45;;;;;;;6.22;1.77;;;;;;;;;;5020070;28;20029;-67
2022/08/27 01:30:13;;;;;;;7.35;1.75;;;;;;;;;;5025211;28;20059;-68
2022/08/27 01:32:39;;;;;;;7.28;1.88;;;;;;;;;;5029710;28;20065;-66
2022/08/27 01:35:07;;;;;;;7.60;1.90;;;;;;;;;;5001954;28;20048;-66
2022/08/27 01:37:33;;;;;;;7.45;1.95;;;;;;;;;;5025006;28;20453;-67
2022/08/27 01:40:00;;;;;;;10.95;2.05;;;;;;;;;;5023550;28;20720;-67
2022/08/27 01:42:35;;;;;;;6.45;1.95;;;;;;;;;;5025456;28;20020;-66
2022/08/27 01:45:02;;;;;;;10.52;2.22;;;;;;;;;;5026522;28;20033;-67
2022/08/27 01:47:28;;;;;;;10.30;2.20;;;;;;;;;;5024559;28;20061;-67
2022/08/27 01:49:55;;;;;;;6.28;1.95;;;;;;;;;;5021306;28;20044;-67
2022/08/27 01:52:22;;;;;;;7.60;1.80;;;;;;;;;;5022217;28;20029;-67
2022/08/27 01:54:50;;;;;;;7.22;1.90;;;;;;;;;;5017935;28;20569;-67
2022/08/27 01:57:16;;;;;;;7.32;2.00;;;;;;;;;;5018916;28;20060;-67
2022/08/27 01:59:43;;;;;;;8.80;2.13;;;;;;;;;;5016230;28;20767;-67
2022/08/27 02:02:10;;;;;;;6.28;1.85;;;;;;;;;;5018205;28;20025;-68
2022/08/27 02:04:36;;;;;;;6.72;1.90;;;;;;;;;;5022600;28;20033;-66
2022/08/27 02:07:03;;;;;;;7.07;1.85;;;;;;;;;;5015828;28;20484;-67
2022/08/27 02:09:30;;;;;;;6.80;1.85;;;;;;;;;;5019242;28;20037;-69
2022/08/27 02:11:56;;;;;;;6.72;1.60;;;;;;;;;;5014506;28;20025;-67
2022/08/27 02:14:23;;;;;;;7.75;1.95;;;;;;;;;;5016503;28;20033;-66
2022/08/27 02:16:49;;;;;;;8.05;1.70;;;;;;;;;;5014131;28;20754;-67
2022/08/27 02:19:15;;;;;;;8.23;1.60;;;;;;;;;;4999809;28;20033;-67
2022/08/27 02:21:42;;;;;;;7.70;1.48;;;;;;;;;;4993767;28;20517;-69
2022/08/27 02:24:08;;;;;;;6.97;1.60;;;;;;;;;;5020734;28;20037;-67
2022/08/27 02:26:34;;;;;;;6.80;2.05;;;;;;;;;;5018173;28;20033;-66
2022/08/27 02:29:00;;;;;;;8.65;2.60;;;;;;;;;;5019024;28;20676;-68
2022/08/27 02:31:27;;;;;;;6.28;1.95;;;;;;;;;;5020989;28;20814;-67
2022/08/27 02:33:53;;;;;;;7.38;1.98;;;;;;;;;;5019218;28;20041;-67
2022/08/27 02:36:19;;;;;;;5.65;1.70;;;;;;;;;;5020239;28;20029;-69
2022/08/27 02:38:46;;;;;;;10.00;2.10;;;;;;;;;;4999794;28;20028;-67
2022/08/27 02:41:13;;;;;;;7.47;2.00;;;;;;;;;;5014740;28;20037;-67
2022/08/27 02:43:39;;;;;;;6.55;1.95;;;;;;;;;;5003136;28;20455;-69
2022/08/27 02:46:05;;;;;;;6.88;1.80;;;;;;;;;;5018915;28;20035;-67
2022/08/27 02:48:32;;;;;;;5.75;1.90;;;;;;;;;;5015103;28;20033;-67
2022/08/27 02:50:58;;;;;;;6.60;1.73;;;;;;;;;;5015348;28;20017;-67
2022/08/27 02:53:24;;;;;;;6.05;1.40;;;;;;;;;;5017535;28;20036;-67
2022/08/27 02:55:51;;;;;;;5.28;1.65;;;;;;;;;;4994762;28;20028;-67
2022/08/27 02:58:17;;;;;;;7.68;1.80;;;;;;;;;;5015620;28;20556;-67
2022/08/27 03:00:44;;;;;;;6.20;1.60;;;;;;;;;;5014166;28;20026;-66
2022/08/27 03:03:10;;;;;;;5.47;1.60;;;;;;;;;;5002962;28;20053;-67
2022/08/27 03:05:37;;;;;;;5.50;1.65;;;;;;;;;;5017957;28;20040;-68
2022/08/27 03:08:04;;;;;;;7.20;1.70;;;;;;;;;;5014036;28;20049;-67
2022/08/27 03:10:30;;;;;;;7.30;1.73;;;;;;;;;;5018701;28;20025;-66
2022/08/27 03:12:57;;;;;;;7.75;1.88;;;;;;;;;;5014303;28;20369;-67
2022/08/27 03:15:23;;;;;;;8.05;1.90;;;;;;;;;;4995621;28;20087;-67
2022/08/27 03:20:39;;;;;;;8.13;2.00;;;;;;;;;;5017425;28;20126;-66
2022/08/27 03:23:06;;;;;;;6.63;1.60;;;;;;;;;;5019324;28;20406;-67
2022/08/27 03:25:32;;;;;;;7.65;2.20;;;;;;;;;;5019543;28;20033;-66
2022/08/27 03:27:58;;;;;;;5.38;1.63;;;;;;;;;;5015490;28;20040;-66
2022/08/27 03:30:24;;;;;;;5.35;1.85;;;;;;;;;;4994818;28;20479;-67
2022/08/27 03:32:51;;;;;;;8.60;1.80;;;;;;;;;;5019343;28;20135;-68
2022/08/27 03:35:18;;;;;;;5.35;1.60;;;;;;;;;;4998108;28;20039;-67
2022/08/27 03:37:45;;;;;;;10.23;1.92;;;;;;;;;;4998277;28;20127;-66
2022/08/27 03:40:12;;;;;;;7.45;1.70;;;;;;;;;;5016811;28;20358;-67
2022/08/27 03:42:38;;;;;;;6.47;1.45;;;;;;;;;;5019134;28;20116;-67
2022/08/27 03:45:05;;;;;;;5.60;1.65;;;;;;;;;;4997377;28;20120;-67
2022/08/27 03:47:32;;;;;;;9.15;1.85;;;;;;;;;;5015002;28;20325;-67
2022/08/27 03:49:59;;;;;;;5.50;1.40;;;;;;;;;;5014533;28;20112;-67
2022/08/27 03:52:26;;;;;;;5.55;1.30;;;;;;;;;;5017906;28;20619;-68
2022/08/27 03:54:52;;;;;;;4.90;1.30;;;;;;;;;;4999792;28;20473;-69
2022/08/27 03:57:18;;;;;;;4.82;1.40;;;;;;;;;;5019914;28;20514;-69
2022/08/27 03:59:44;;;;;;;5.55;1.35;;;;;;;;;;5014704;28;20460;-67
2022/08/27 04:02:11;;;;;;;7.70;1.50;;;;;;;;;;5018437;28;20156;-67
2022/08/27 04:04:37;;;;;;;5.82;1.50;;;;;;;;;;5021786;28;20029;-67
2022/08/27 04:07:03;;;;;;;6.10;1.33;;;;;;;;;;5020913;28;20394;-67
2022/08/27 04:09:29;;;;;;;4.53;1.30;;;;;;;;;;5021827;28;20044;-68
2022/08/27 04:11:56;;;;;;;3.85;1.02;;;;;;;;;;5014152;28;20096;-67
2022/08/27 04:14:22;;;;;;;5.88;1.42;;;;;;;;;;5021954;28;20037;-66
2022/08/27 04:16:48;;;;;;;8.30;1.70;;;;;;;;;;5018620;28;20037;-67
2022/08/27 04:19:14;;;;;;;5.80;1.60;;;;;;;;;;5022895;28;20017;-67
2022/08/27 04:21:40;;;;;;;6.10;1.40;;;;;;;;;;5023821;28;20122;-66
2022/08/27 04:24:07;;;;;;;9.45;2.15;;;;;;;;;;5022261;28;20494;-66
2022/08/27 04:26:34;;;;;;;8.32;1.90;;;;;;;;;;4996300;28;20029;-67
2022/08/27 04:29:00;;;;;;;8.77;2.03;;;;;;;;;;5021224;28;20127;-67
2022/08/27 04:31:26;;;;;;;5.22;1.50;;;;;;;;;;5024555;28;20039;-66
2022/08/27 04:33:52;;;;;;;5.53;1.55;;;;;;;;;;5022093;28;20164;-67
2022/08/27 04:36:19;;;;;;;6.32;1.52;;;;;;;;;;5026619;28;20140;-68
2022/08/27 04:38:45;;;;;;;6.35;1.67;;;;;;;;;;5017392;28;20025;-67
2022/08/27 04:41:26;;;;;;;7.25;1.77;;;;;;;;;;5019664;28;20322;-67
2022/08/27 04:43:54;;;;;;;8.77;1.45;;;;;;;;;;5021014;28;20032;-67
2022/08/27 04:46:24;;;;;;;6.82;1.75;;;;;;;;;;5023211;28;20036;-67
2022/08/27 04:48:50;;;;;;;6.68;1.70;;;;;;;;;;5020248;28;20040;-67
2022/08/27 04:51:17;;;;;;;8.52;1.75;;;;;;;;;;5024338;28;20056;-67
2022/08/27 04:53:43;;;;;;;7.82;2.33;;;;;;;;;;5021577;28;20123;-67
2022/08/27 04:56:12;;;;;;;10.18;1.90;;;;;;;;;;5009007;28;20029;-67
2022/08/27 04:58:39;;;;;;;7.43;2.03;;;;;;;;;;5025443;28;20080;-67
2022/08/27 05:01:06;;;;;;;10.20;2.25;;;;;;;;;;5025673;28;20648;-67
2022/08/27 05:03:32;;;;;;;7.80;2.22;;;;;;;;;;5025844;28;20032;-67
2022/08/27 05:06:00;;;;;;;6.78;2.00;;;;;;;;;;5022465;28;20044;-67
2022/08/27 05:08:26;;;;;;;6.88;1.80;;;;;;;;;;5022686;28;20072;-67
2022/08/27 05:10:52;;;;;;;6.38;1.85;;;;;;;;;;5021401;28;20422;-67
2022/08/27 05:13:23;;;;;;;6.45;1.88;;;;;;;;;;5001900;28;20556;-67
2022/08/27 05:15:49;;;;;;;7.57;2.20;;;;;;;;;;4998665;28;20493;-66
2022/08/27 05:18:16;;;;;;;6.75;1.80;;;;;;;;;;5022217;28;20027;-66
2022/08/27 05:20:44;;;;;;;7.80;2.30;;;;;;;;;;5001514;28;20395;-66
2022/08/27 05:23:10;;;;;;;6.97;1.90;;;;;;;;;;5022094;28;20061;-67
2022/08/27 05:25:40;;;;;;;9.52;2.47;;;;;;;;;;5022449;28;20034;-67
2022/08/27 05:28:07;;;;;;;9.35;2.15;;;;;;;;;;5016885;28;20056;-66
2022/08/27 05:30:37;;;;;;;7.72;2.17;;;;;;;;;;5020807;28;20033;-67
2022/08/27 05:33:03;;;;;;;8.55;2.33;;;;;;;;;;5012828;28;20029;-67
2022/08/27 05:35:31;;;;;;;6.38;1.98;;;;;;;;;;5018894;28;20047;-67
2022/08/27 05:37:58;;;;;;;8.18;2.28;;;;;;;;;;5012935;28;20044;-67
2022/08/27 05:40:25;;;;;;;9.27;2.20;;;;;;;;;;5003238;28;20132;-67
2022/08/27 05:42:51;;;;;;;9.20;2.20;;;;;;;;;;5015944;28;20024;-66
2022/08/27 05:45:18;;;;;;;10.02;2.22;;;;;;;;;;5020014;28;20131;-67
2022/08/27 05:47:44;;;;;;;10.48;2.20;;;;;;;;;;5016532;28;20025;-66
2022/08/27 05:50:10;;;;;;;9.10;2.25;;;;;;;;;;5019377;28;20478;-66
2022/08/27 05:52:37;;;;;;;7.93;1.77;;;;;;;;;;5020277;28;20118;-67
2022/08/27 05:55:03;;;;;;;8.52;2.30;;;;;;;;;;5015026;28;20037;-66
2022/08/27 05:57:29;;;;;;;6.57;2.17;;;;;;;;;;5017639;28;20036;-67
2022/08/27 06:02:40;;;;;;;9.32;2.72;;;;;;;;;;5016219;28;20461;-66
2022/08/27 06:05:06;;;;;;;13.00;2.85;;;;;;;;;;4989088;28;20382;-67
2022/08/27 06:07:33;;;;;;;7.95;2.63;;;;;;;;;;5019592;28;20032;-67
2022/08/27 06:10:00;;;;;;;9.18;2.78;;;;;;;;;;5014797;28;21159;-66
2022/08/27 06:12:26;;;;;;;10.13;3.00;;;;;;;;;;4999105;28;21024;-66
2022/08/27 06:14:52;;;;;;;7.13;2.40;;;;;;;;;;5015268;28;20094;-67
2022/08/27 06:17:18;;;;;;;8.45;2.22;;;;;;;;;;5020428;28;20027;-67
2022/08/27 06:19:44;;;;;;;8.40;2.50;;;;;;;;;;5016054;28;20043;-66
2022/08/27 06:22:10;;;;;;;7.40;1.95;;;;;;;;;;5021048;28;20075;-66
2022/08/27 06:24:38;;;;;;;7.25;2.10;;;;;;;;;;5014968;28;20544;-66
2022/08/27 06:27:04;;;;;;;11.23;2.30;;;;;;;;;;5016128;28;20048;-66
2022/08/27 06:29:32;;;;;;;9.15;2.05;;;;;;;;;;5021107;28;20467;-67
2022/08/27 06:31:59;;;;;;;12.20;2.40;;;;;;;;;;5011239;28;20036;-66
2022/08/27 06:34:25;;;;;;;7.78;2.15;;;;;;;;;;5015220;28;20480;-66
2022/08/27 06:36:52;;;;;;;11.07;2.13;;;;;;;;;;5015997;28;20104;-67
2022/08/27 06:39:18;;;;;;;6.50;1.73;;;;;;;;;;5017893;28;20025;-66
2022/08/27 06:41:44;;;;;;;7.47;1.95;;;;;;;;;;5012323;28;20470;-66
2022/08/27 06:44:11;;;;;;;7.13;1.90;;;;;;;;;;5018684;28;20040;-66
2022/08/27 06:46:38;;;;;;;8.90;1.60;;;;;;;;;;5020591;28;20344;-67
2022/08/27 06:49:04;;;;;;;6.45;1.70;;;;;;;;;;5013472;28;20143;-66
2022/08/27 06:51:32;;;;;;;6.45;1.52;;;;;;;;;;5017617;28;20091;-66
2022/08/27 06:53:59;;;;;;;7.18;1.70;;;;;;;;;;5016756;28;20069;-66
2022/08/27 06:56:25;;;;;;;5.78;1.60;;;;;;;;;;5019033;28;20021;-66
2022/08/27 06:58:54;;;;;;;7.32;1.63;;;;;;;;;;4997958;28;20274;-66
2022/08/27 07:01:24;;;;;;;7.53;2.00;;;;;;;;;;5022698;28;20028;-66
2022/08/27 07:03:50;;;;;;;7.85;1.75;;;;;;;;;;5015953;28;20040;-66
2022/08/27 07:06:17;;;;;;;8.57;1.60;;;;;;;;;;5017165;28;20524;-67
2022/08/27 07:08:44;;;;;;;7.10;1.52;;;;;;;;;;5015381;28;20565;-66
2022/08/27 07:11:11;;;;;;;8.27;1.67;;;;;;;;;;5020779;28;20039;-66
2022/08/27 07:13:38;;;;;;;11.30;1.55;;;;;;;;;;5015472;28;20103;-66
2022/08/27 07:16:09;;;;;;;5.95;1.40;;;;;;;;;;4992848;28;20031;-67
2022/08/27 07:18:35;;;;;;;6.80;1.50;;;;;;;;;;5016758;28;20025;-66
2022/08/27 07:21:03;;;;;;;5.20;1.30;;;;;;;;;;5013347;28;20021;-66
2022/08/27 07:23:29;;;;;;;5.85;1.48;;;;;;;;;;4995451;28;20309;-67
2022/08/27 07:25:56;;;;;;;7.05;1.50;;;;;;;;;;5016946;28;20087;-66
2022/08/27 07:28:22;;;;;;;5.57;1.70;;;;;;;;;;5018330;28;20044;-66
2022/08/27 07:30:48;;;;;;;7.38;1.70;;;;;;;;;;5015895;28;20048;-67
2022/08/27 07:33:14;;;;;;;6.80;1.55;;;;;;;;;;5017272;28;20364;-66
2022/08/27 07:35:40;;;;;;;8.90;2.03;;;;;;;;;;5017580;28;20549;-67
2022/08/27 07:38:09;;;;;;;7.47;1.58;;;;;;;;;;5013461;28;20103;-67
2022/08/27 07:40:35;;;;;;;8.23;1.70;;;;;;;;;;5012554;28;20083;-68
2022/08/27 07:45:49;;;;;;;8.23;1.55;;;;;;;;;;5014723;28;20036;-67
2022/08/27 07:48:15;;;;;;;5.70;1.58;;;;;;;;;;5015470;28;20028;-68
2022/08/27 07:50:42;;;;;;;8.45;1.77;;;;;;;;;;5009995;28;20037;-68
2022/08/27 07:53:08;;;;;;;8.50;1.60;;;;;;;;;;4999909;28;20399;-67
2022/08/27 07:55:38;;;;;;;7.75;1.63;;;;;;;;;;4993456;28;20029;-67
2022/08/27 07:58:05;;;;;;;6.82;1.95;;;;;;;;;;5014118;28;20067;-67
2022/08/27 08:00:31;;;;;;;5.18;1.50;;;;;;;;;;5012851;28;20108;-67
2022/08/27 08:02:57;;;;;;;7.95;1.83;;;;;;;;;;5009656;28;20452;-67
2022/08/27 08:05:23;;;;;;;8.18;1.73;;;;;;;;;;5012145;28;20041;-68
2022/08/27 08:07:50;;;;;;;8.70;1.60;;;;;;;;;;5003124;28;20494;-68
2022/08/27 08:10:19;;;;;;;6.35;1.48;;;;;;;;;;5008250;28;20561;-68
2022/08/27 08:12:45;;;;;;;6.45;1.50;;;;;;;;;;5005275;28;20505;-68
2022/08/27 08:15:12;;;;;;;6.68;1.60;;;;;;;;;;5008751;28;20045;-67
2022/08/27 08:17:38;;;;;;;7.07;1.80;;;;;;;;;;5007513;28;20034;-66
2022/08/27 08:20:07;;;;;;;9.65;2.00;;;;;;;;;;5007423;28;20033;-68
2022/08/27 08:22:33;;;;;;;9.52;1.70;;;;;;;;;;4994076;28;20060;-69
2022/08/27 08:24:59;;;;;;;7.70;2.25;;;;;;;;;;5008926;28;22062;-70
2022/08/27 08:27:26;;;;;;;19.05;10.77;;;;;;;;;;5010717;28;20686;-69
2022/08/27 08:29:52;;;;;;;14.32;4.40;;;;;;;;;;5004559;28;20026;-70
2022/08/27 08:32:20;;;;;;;9.38;3.03;;;;;;;;;;5003357;28;20028;-69
2022/08/27 08:34:47;;;;;;;11.20;3.58;;;;;;;;;;5004196;28;20032;-69
2022/08/27 08:37:13;;;;;;;8.30;2.38;;;;;;;;;;4994670;28;20033;-69
2022/08/27 08:39:40;;;;;;;7.88;2.30;;;;;;;;;;5009771;28;20386;-68
2022/08/27 08:42:09;;;;;;;10.55;4.82;;;;;;;;;;5013119;28;20341;-69
2022/08/27 08:44:35;;;;;;;9.32;3.92;;;;;;;;;;5010844;28;20388;-69
2022/08/27 08:47:10;;;;;;;14.80;4.30;;;;;;;;;;4992463;28;20069;-70
2022/08/27 08:49:37;;;;;;;10.73;4.28;;;;;;;;;;5015547;28;20404;-71
2022/08/27 08:52:21;;;;;;;11.40;3.42;;;;;;;;;;5016185;28;20125;-72
2022/08/27 08:54:49;;;;;;;13.25;7.15;;;;;;;;;;5014876;28;20465;-70
2022/08/27 08:57:20;;;;;;;11.68;5.25;;;;;;;;;;5003258;28;20527;-70
2022/08/27 08:59:50;;;;;;;10.00;3.35;;;;;;;;;;5014157;28;20029;-69
2022/08/27 09:02:17;;;;;;;9.40;2.83;;;;;;;;;;5015703;28;20063;-70
2022/08/27 09:04:43;;;;;;;8.23;1.98;;;;;;;;;;5012775;28;20499;-68
2022/08/27 09:07:14;;;;;;;10.63;2.60;;;;;;;;;;5015507;28;20364;-67
2022/08/27 09:09:51;;;;;;;10.32;3.03;;;;;;;;;;5008245;28;20471;-69
2022/08/27 09:12:21;;;;;;;8.00;2.80;;;;;;;;;;5012870;28;20473;-69
2022/08/27 09:14:55;;;;;;;9.18;2.20;;;;;;;;;;5008491;28;20470;-66
2022/08/27 09:17:22;;;;;;;8.93;1.80;;;;;;;;;;5011279;28;20175;-68
2022/08/27 09:19:48;;;;;;;7.20;1.63;;;;;;;;;;5009884;28;20273;-65
2022/08/27 09:22:17;;;;;;;6.80;1.60;;;;;;;;;;5012423;28;20049;-65
2022/08/27 09:24:46;;;;;;;8.27;1.88;;;;;;;;;;5013609;28;20402;-67
2022/08/27 09:27:13;;;;;;;7.25;1.50;;;;;;;;;;5019712;28;20059;-67
2022/08/27 09:29:47;;;;;;;8.85;1.60;;;;;;;;;;5016074;28;20619;-67
2022/08/27 09:32:13;;;;;;;6.53;1.63;;;;;;;;;;5000740;28;20028;-66
2022/08/27 09:34:41;;;;;;;5.05;1.25;;;;;;;;;;5020941;28;20029;-68
2022/08/27 09:37:09;;;;;;;6.65;1.50;;;;;;;;;;5016907;28;20479;-68
2022/08/27 09:39:54;;;;;;;6.85;1.40;;;;;;;;;;5012895;28;20074;-68
2022/08/27 09:42:28;;;;;;;4.55;1.35;;;;;;;;;;5010322;28;20383;-69
2022/08/27 09:44:54;;;;;;;5.22;1.27;;;;;;;;;;4981164;28;20144;-68
2022/08/27 09:47:21;;;;;;;5.28;1.40;;;;;;;;;;5011402;28;20029;-67
2022/08/27 09:49:47;;;;;;;7.03;1.63;;;;;;;;;;4994995;28;20037;-67
2022/08/27 09:52:34;;;;;;;5.88;1.40;;;;;;;;;;5014184;28;20600;-67
2022/08/27 09:55:00;;;;;;;4.95;1.30;;;;;;;;;;5005973;28;20730;-68
2022/08/27 09:57:33;;;;;;;7.10;1.88;;;;;;;;;;5011299;28;20427;-68
2022/08/27 09:59:59;;;;;;;9.40;2.38;;;;;;;;;;4991620;28;20037;-66
2022/08/27 10:02:26;;;;;;;11.82;1.55;;;;;;;;;;4993608;28;20049;-66
2022/08/27 10:04:53;;;;;;;11.43;1.30;;;;;;;;;;5001705;28;20041;-66
2022/08/27 10:07:39;;;;;;;11.32;1.60;;;;;;;;;;5007884;28;20037;-67
2022/08/27 10:10:06;;;;;;;;;;;;;;;;;;5013010;28;20112;-66
2022/08/27 10:12:35;;;;;;;6.60;1.40;;;;;;;;;;5017098;28;19921;-65
2022/08/27 10:15:03;;;;;;;7.45;1.00;;;;;;;;;;4991768;28;20029;-65
2022/08/27 10:17:29;;;;;;;4.05;0.73;;;;;;;;;;5011462;28;20040;-66
2022/08/27 10:20:08;;;;;;;6.68;1.00;;;;;;;;;;5008759;28;20171;-65
2022/08/27 10:23:01;;;;;;;6.80;1.00;;;;;;;;;;5008787;28;20056;-66
2022/08/27 10:25:28;;;;;;;5.90;1.30;;;;;;;;;;4991287;28;20094;-66
2022/08/27 10:28:18;;;;;;;6.25;1.33;;;;;;;;;;4994533;28;20032;-66
2022/08/27 10:31:02;;;;;;;12.18;2.22;;;;;;;;;;5014254;28;20025;-66
2022/08/27 10:33:47;;;;;;;8.00;1.85;;;;;;;;;;5010782;28;20331;-66
2022/08/27 10:36:25;;;;;;;8.20;1.70;;;;;;;;;;5018721;28;20098;-67
2022/08/27 10:38:54;;;;;;;9.02;1.70;;;;;;;;;;5010870;28;20439;-66
2022/08/27 10:41:33;;;;;;;8.45;1.50;;;;;;;;;;5010250;28;20038;-68
2022/08/27 10:44:18;;;;;;;6.07;1.50;;;;;;;;;;5000330;28;20037;-66
2022/08/27 10:46:50;;;;;;;5.60;1.17;;;;;;;;;;5004768;28;20462;-66
2022/08/27 10:49:26;;;;;;;5.40;1.30;;;;;;;;;;5023446;28;20256;-67
2022/08/27 10:52:04;;;;;;;4.15;1.20;;;;;;;;;;5022843;28;20550;-67
2022/08/27 10:54:44;;;;;;;4.50;1.00;;;;;;;;;;5012939;28;20041;-67
2022/08/27 10:57:28;;;;;;;4.82;1.25;;;;;;;;;;5017023;28;20424;-66
2022/08/27 11:00:28;;;;;;;5.70;1.20;;;;;;;;;;5003741;28;20028;-66
2022/08/27 11:02:56;;;;;;;8.18;1.67;;;;;;;;;;4967983;28;20053;-66
2022/08/27 11:05:28;;;;;;;7.82;1.58;;;;;;;;;;4949694;28;20862;-65
2022/08/27 11:08:04;;;;;;;7.57;1.50;;;;;;;;;;4967514;28;20032;-69
2022/08/27 11:10:35;;;;;;;7.13;1.60;;;;;;;;;;4963936;28;20025;-65
2022/08/27 11:13:12;;;;;;;7.22;1.90;;;;;;;;;;4962631;28;20366;-68
2022/08/27 11:15:42;;;;;;;11.77;1.90;;;;;;;;;;4965628;28;20048;-68
2022/08/27 11:18:18;;;;;;;6.28;1.60;;;;;;;;;;4953009;28;20832;-65
2022/08/27 11:20:46;;;;;;;7.43;1.60;;;;;;;;;;4963860;28;20039;-66
2022/08/27 11:23:39;;;;;;;7.45;1.48;;;;;;;;;;4967230;28;20068;-68
2022/08/27 11:26:06;;;;;;;4.95;1.23;;;;;;;;;;4950140;28;20039;-67
2022/08/27 11:28:38;;;;;;;7.10;1.20;;;;;;;;;;4951685;28;20029;-66
2022/08/27 11:31:21;;;;;;;9.23;1.50;;;;;;;;;;4950661;28;20034;-65
2022/08/27 11:34:01;;;;;;;6.05;1.10;;;;;;;;;;4964014;28;20076;-66
2022/08/27 11:36:46;;;;;;;5.82;1.30;;;;;;;;;;4965418;28;20058;-67
2022/08/27 11:39:15;;;;;;;7.25;1.65;;;;;;;;;;4990236;28;20053;-66
2022/08/27 11:41:48;;;;;;;6.95;1.90;;;;;;;;;;5002336;28;20029;-65
2022/08/27 11:44:16;;;;;;;6.05;1.60;;;;;;;;;;5019065;28;20044;-65
2022/08/27 11:46:47;;;;;;;8.77;2.45;;;;;;;;;;4994540;28;20522;-65
2022/08/27 11:49:43;;;;;;;8.93;2.25;;;;;;;;;;5012748;28;20498;-65
2022/08/27 11:52:09;;;;;;;7.82;2.20;;;;;;;;;;4993444;28;20207;-67
2022/08/27 11:54:57;;;;;;;8.77;1.58;;;;;;;;;;5011040;28;20438;-65
2022/08/27 11:57:33;;;;;;;5.55;1.70;;;;;;;;;;4997158;28;20553;-67
2022/08/27 12:00:12;;;;;;;7.38;2.20;;;;;;;;;;5012948;28;20423;-66
2022/08/27 12:02:39;;;;;;;9.52;2.33;;;;;;;;;;5013639;28;20564;-65
2022/08/27 12:05:32;;;;;;;7.75;2.60;;;;;;;;;;4994560;28;20040;-65
2022/08/27 12:07:59;;;;;;;9.55;2.75;;;;;;;;;;4999117;28;20029;-65
2022/08/27 12:10:39;;;;;;;10.07;3.50;;;;;;;;;;5016794;28;20033;-65
2022/08/27 12:13:32;;;;;;;8.52;2.70;;;;;;;;;;5015172;28;20060;-65
2022/08/27 12:16:07;;;;;;;7.28;2.30;;;;;;;;;;5003158;28;20241;-65
2022/08/27 12:18:36;;;;;;;5.97;1.50;;;;;;;;;;5012149;28;20136;-65
2022/08/27 12:21:02;;;;;;;6.90;1.60;;;;;;;;;;5010214;28;20083;-65
2022/08/27 12:23:41;;;;;;;6.07;1.77;;;;;;;;;;5020697;28;20041;-66
2022/08/27 12:26:25;;;;;;;5.32;1.70;;;;;;;;;;5020244;28;20025;-66
2022/08/27 12:29:15;;;;;;;7.68;2.10;;;;;;;;;;5013179;28;20078;-66
2022/08/27 12:31:43;;;;;;;6.55;2.05;;;;;;;;;;5010758;28;20486;-66
2022/08/27 12:34:14;;;;;;;9.50;2.42;;;;;;;;;;5015501;28;20391;-65
2022/08/27 12:36:41;;;;;;;9.38;2.30;;;;;;;;;;4992840;28;20030;-67
2022/08/27 12:39:13;;;;;;;9.18;2.13;;;;;;;;;;5021293;28;20083;-65
2022/08/27 12:41:44;;;;;;;6.68;1.70;;;;;;;;;;4999622;28;20118;-65
2022/08/27 12:44:11;;;;;;;5.72;1.70;;;;;;;;;;5015446;28;20119;-65
2022/08/27 12:46:48;;;;;;;5.43;1.40;;;;;;;;;;5016256;28;20042;-65
2022/08/27 12:49:18;;;;;;;5.97;1.40;;;;;;;;;;5013612;28;20774;-65
2022/08/27 12:51:45;;;;;;;6.20;1.42;;;;;;;;;;5013793;28;20041;-66
2022/08/27 12:54:26;;;;;;;8.13;1.40;;;;;;;;;;5016000;28;20098;-64
2022/08/27 12:56:52;;;;;;;4.28;1.00;;;;;;;;;;5011562;28;20033;-66
2022/08/27 12:59:22;;;;;;;6.60;1.20;;;;;;;;;;5013564;28;20888;-66
2022/08/27 13:01:48;;;;;;;3.78;1.05;;;;;;;;;;5010426;28;20143;-65
2022/08/27 13:04:22;;;;;;;3.95;1.13;;;;;;;;;;5011891;28;20558;-65
2022/08/27 13:06:48;;;;;;;3.22;0.90;;;;;;;;;;5009466;28;20051;-66
2022/08/27 13:09:15;;;;;;;2.70;0.90;;;;;;;;;;5012270;28;20300;-66
2022/08/27 13:11:48;;;;;;;5.15;1.33;;;;;;;;;;5010544;28;20039;-65
2022/08/27 13:14:16;;;;;;;5.18;1.27;;;;;;;;;;5018338;28;20048;-65
2022/08/27 13:17:05;;;;;;;2.03;0.70;;;;;;;;;;5013051;28;20048;-65
2022/08/27 13:19:33;;;;;;;3.33;0.73;;;;;;;;;;5013708;28;20103;-66
2022/08/27 13:22:00;;;;;;;3.00;0.85;;;;;;;;;;5013480;28;20084;-66
2022/08/27 13:24:47;;;;;;;4.65;0.80;;;;;;;;;;5014661;28;20041;-65
2022/08/27 13:27:14;;;;;;;4.03;0.90;;;;;;;;;;5001264;28;20029;-66
2022/08/27 13:29:40;;;;;;;3.28;0.90;;;;;;;;;;5001616;28;20290;-66
2022/08/27 13:32:07;;;;;;;5.45;0.90;;;;;;;;;;5004583;28;20033;-66
2022/08/27 13:34:35;;;;;;;4.32;1.10;;;;;;;;;;5000131;28;20029;-65
2022/08/27 13:37:04;;;;;;;3.65;1.00;;;;;;;;;;5015753;28;20082;-65
2022/08/27 13:39:33;;;;;;;3.40;1.10;;;;;;;;;;5014344;28;20005;-65
2022/08/27 13:42:00;;;;;;;3.65;0.82;;;;;;;;;;5016667;28;20495;-67
2022/08/27 13:44:32;;;;;;;3.88;0.70;;;;;;;;;;5017014;28;20036;-65
2022/08/27 13:47:00;;;;;;;2.22;0.60;;;;;;;;;;5000461;28;20224;-67
2022/08/27 13:49:27;;;;;;;3.65;0.80;;;;;;;;;;5002429;28;20053;-64
2022/08/27 13:51:59;;;;;;;4.82;0.90;;;;;;;;;;5014855;28;20097;-65
2022/08/27 13:54:25;;;;;;;4.65;0.88;;;;;;;;;;5015494;28;20033;-65
2022/08/27 13:56:54;;;;;;;3.95;0.95;;;;;;;;;;5012240;28;20095;-66
2022/08/27 13:59:21;;;;;;;3.45;0.70;;;;;;;;;;5013762;28;20307;-66
2022/08/27 14:01:56;;;;;;;1.98;0.45;;;;;;;;;;5009418;28;20029;-66
2022/08/27 14:04:27;;;;;;;2.97;0.70;;;;;;;;;;5012715;28;20344;-66
2022/08/27 14:06:53;;;;;;;3.28;0.57;;;;;;;;;;5006677;28;20033;-65
2022/08/27 14:09:24;;;;;;;2.08;0.57;;;;;;;;;;5012542;28;20030;-65
2022/08/27 14:11:56;;;;;;;2.88;0.70;;;;;;;;;;5009369;28;20033;-66
2022/08/27 14:14:22;;;;;;;3.53;0.77;;;;;;;;;;4994913;28;20073;-66
2022/08/27 14:16:56;;;;;;;5.47;0.90;;;;;;;;;;5004244;28;20033;-66
2022/08/27 14:19:32;;;;;;;2.50;0.70;;;;;;;;;;5012722;28;20214;-66
2022/08/27 14:21:59;;;;;;;3.63;0.60;;;;;;;;;;5007193;28;20052;-65
2022/08/27 14:24:26;;;;;;;3.05;0.52;;;;;;;;;;5011033;28;20025;-65
2022/08/27 14:26:53;;;;;;;3.45;0.82;;;;;;;;;;5010671;28;20306;-65
2022/08/27 14:29:20;;;;;;;3.10;0.95;;;;;;;;;;5003316;28;20072;-65
2022/08/27 14:31:46;;;;;;;2.58;0.80;;;;;;;;;;5000191;28;20061;-65
2022/08/27 14:34:13;;;;;;;8.15;3.80;;;;;;;;;;5016150;28;20306;-65
2022/08/27 14:36:40;;;;;;;5.63;1.70;;;;;;;;;;5012429;28;21174;-65
2022/08/27 14:39:06;;;;;;;3.50;1.15;;;;;;;;;;4999148;28;20128;-66
2022/08/27 14:41:33;;;;;;;2.92;1.00;;;;;;;;;;5012685;28;20064;-65
2022/08/27 14:43:59;;;;;;;2.65;0.80;;;;;;;;;;5007672;28;20918;-65
2022/08/27 14:46:34;;;;;;;2.75;0.60;;;;;;;;;;5011141;28;20037;-65
2022/08/27 14:49:04;;;;;;;2.63;0.60;;;;;;;;;;5008956;28;20060;-65
2022/08/27 14:51:31;;;;;;;2.53;0.63;;;;;;;;;;5011872;28;20041;-65
2022/08/27 14:53:58;;;;;;;2.17;0.55;;;;;;;;;;5005741;28;20095;-66
2022/08/27 14:56:24;;;;;;;2.17;0.50;;;;;;;;;;5012035;28;20029;-64
2022/08/27 14:58:52;;;;;;;2.92;0.60;;;;;;;;;;5009946;28;20033;-64
2022/08/27 15:01:21;;;;;;;2.72;0.60;;;;;;;;;;4998784;28;20386;-66
2022/08/27 15:03:49;;;;;;;1.33;0.57;;;;;;;;;;5011915;28;20037;-64